Burnwell, Kentucky
Current Conditions -  °F | °C
As of 6:15 AM on Sunday 23 Nov 2014 (Local Time) from KPBX Reporting Station
Overcast Overcast  
Wind Chill: 52°   Ceiling: 10000
Heat Index: 52°   Visibility: 10mi
Dew Point: 36°   Wind: 10mph
Humidity: 54%   Direction: 140°SE
Pressure: 30.07"   Gusts: NA
Location:  37.632°N, 82.2603°W
Report Text: KPBX 231115Z AUTO 14009KT 10SM OVC100 11/02 A3007 RMK AO2 T01100020
Loading
Personal Weather Stations






























Interactive Weather Map New forecast layout! Learn more

10-Day Weather Forecast

Advertisements
Track Severe Weather on mobile